createdAt,value
2022-11-06T00:01:24.972Z,59.14
2022-11-06T00:03:53.283Z,59.16
2022-11-06T00:06:39.106Z,59.18
2022-11-06T00:09:09.232Z,59.57
2022-11-06T00:11:36.309Z,59.65
2022-11-06T00:14:03.826Z,59.59
2022-11-06T00:16:30.824Z,59.76
2022-11-06T00:19:01.368Z,59.72
2022-11-06T00:21:30.620Z,59.84
2022-11-06T00:23:59.963Z,59.75
2022-11-06T00:26:29.668Z,59.69
2022-11-06T00:28:57.128Z,59.55
2022-11-06T00:31:29.921Z,59.81
2022-11-06T00:33:59.169Z,59.75
2022-11-06T00:36:27.740Z,59.83
2022-11-06T00:38:55.416Z,59.78
2022-11-06T00:41:23.476Z,59.76
2022-11-06T00:43:56.693Z,59.83
2022-11-06T00:46:23.599Z,59.82
2022-11-06T00:48:50.767Z,59.94
2022-11-06T00:51:20.882Z,59.99
2022-11-06T00:53:48.282Z,59.95
2022-11-06T00:56:19.745Z,59.78
2022-11-06T00:58:47.652Z,60.00
2022-11-06T01:01:18.490Z,60.08
2022-11-06T01:03:48.157Z,60.11
2022-11-06T01:06:20.884Z,59.97
2022-11-06T01:08:50.055Z,59.94
2022-11-06T01:11:24.025Z,60.03
2022-11-06T01:13:55.494Z,59.89
2022-11-06T01:16:23.879Z,59.88
2022-11-06T01:18:51.941Z,60.17
2022-11-06T01:21:29.848Z,59.94
2022-11-06T01:24:07.981Z,60.09
2022-11-06T01:26:39.344Z,60.32
2022-11-06T01:29:16.146Z,60.09
2022-11-06T01:31:43.228Z,60.20
2022-11-06T01:34:12.057Z,60.28
2022-11-06T01:36:39.684Z,60.28
2022-11-06T01:39:09.294Z,60.27
2022-11-06T01:41:46.026Z,60.41
2022-11-06T01:44:31.651Z,60.17
2022-11-06T01:46:59.648Z,60.36
2022-11-06T01:49:28.797Z,60.55
2022-11-06T01:52:02.075Z,60.16
2022-11-06T01:54:31.085Z,60.45
2022-11-06T01:57:00.224Z,60.30
2022-11-06T01:59:32.266Z,60.12
2022-11-06T02:01:59.202Z,60.45
2022-11-06T02:04:33.007Z,60.41
2022-11-06T02:07:01.033Z,60.62
2022-11-06T02:09:30.391Z,60.46
2022-11-06T02:12:16.647Z,60.56
2022-11-06T02:14:54.568Z,60.45
2022-11-06T02:17:46.491Z,60.48
2022-11-06T02:20:29.522Z,60.65
2022-11-06T02:23:52.905Z,60.65
2022-11-06T02:27:00.434Z,60.65
2022-11-06T02:29:46.478Z,60.56
2022-11-06T02:32:23.231Z,60.51
2022-11-06T02:34:53.421Z,60.82
2022-11-06T02:37:30.114Z,60.53
2022-11-06T02:40:00.710Z,60.46
2022-11-06T02:42:29.645Z,60.57
2022-11-06T02:44:58.089Z,60.64
2022-11-06T02:47:28.874Z,60.43
2022-11-06T02:50:07.607Z,60.44
2022-11-06T02:52:43.057Z,60.37
2022-11-06T02:55:24.489Z,60.32
2022-11-06T02:57:58.623Z,60.41
2022-11-06T03:00:27.836Z,60.34
2022-11-06T03:03:01.843Z,60.45
2022-11-06T03:06:06.039Z,60.26
2022-11-06T03:08:52.466Z,60.21
2022-11-06T03:11:24.046Z,60.38
2022-11-06T03:14:13.665Z,60.45
2022-11-06T03:16:59.611Z,60.28
2022-11-06T03:19:56.083Z,60.57
2022-11-06T03:22:28.696Z,60.39
2022-11-06T03:25:05.524Z,60.40
2022-11-06T03:28:14.341Z,60.33
2022-11-06T03:30:49.929Z,60.41
2022-11-06T03:33:35.027Z,60.11
2022-11-06T03:36:15.728Z,60.38
2022-11-06T03:38:56.178Z,60.34
2022-11-06T03:41:31.410Z,60.30
2022-11-06T03:44:01.209Z,60.36
2022-11-06T03:46:29.784Z,60.48
2022-11-06T03:49:02.353Z,60.47
2022-11-06T03:51:40.361Z,60.38
2022-11-06T03:54:39.386Z,60.48
2022-11-06T03:57:14.967Z,60.31
2022-11-06T03:59:51.486Z,60.48
2022-11-06T04:02:22.747Z,60.48
2022-11-06T04:04:56.502Z,60.45
2022-11-06T04:07:30.362Z,60.64
2022-11-06T04:10:20.779Z,60.50
2022-11-06T04:13:08.229Z,60.41
2022-11-06T04:15:42.103Z,60.70
2022-11-06T04:18:14.290Z,61.10
2022-11-06T04:21:13.030Z,60.40
2022-11-06T04:24:36.566Z,61.08
2022-11-06T04:27:38.639Z,60.89
2022-11-06T04:30:14.843Z,61.38
2022-11-06T04:33:05.732Z,61.19
2022-11-06T04:35:47.331Z,61.18
2022-11-06T04:38:46.656Z,61.54
2022-11-06T04:42:01.426Z,61.25
2022-11-06T04:44:47.991Z,61.40
2022-11-06T04:47:21.610Z,61.39
2022-11-06T04:49:50.961Z,61.40
2022-11-06T04:52:22.653Z,61.34
2022-11-06T04:54:50.271Z,61.46
2022-11-06T04:57:17.098Z,61.53
2022-11-06T04:59:43.884Z,61.40
2022-11-06T05:02:11.657Z,60.85
2022-11-06T05:04:38.517Z,61.06
2022-11-06T05:07:05.336Z,61.18
2022-11-06T05:09:32.238Z,61.12
2022-11-06T05:11:59.019Z,61.18
2022-11-06T05:14:25.801Z,61.27
2022-11-06T05:16:52.583Z,60.96
2022-11-06T05:19:19.382Z,61.33
2022-11-06T05:22:04.555Z,61.08
2022-11-06T05:24:31.317Z,61.06
2022-11-06T05:26:59.593Z,60.98
2022-11-06T05:29:27.328Z,61.28
2022-11-06T05:31:54.188Z,61.16
2022-11-06T05:34:21.479Z,61.53
2022-11-06T05:36:48.297Z,61.07
2022-11-06T05:39:15.087Z,61.23
2022-11-06T05:41:41.907Z,60.94
2022-11-06T05:44:08.874Z,61.07
2022-11-06T05:46:48.799Z,61.05
2022-11-06T05:49:18.167Z,61.18
2022-11-06T05:51:45.090Z,61.03
2022-11-06T05:54:11.895Z,61.28
2022-11-06T05:56:38.670Z,61.11
2022-11-06T05:59:05.588Z,61.14
2022-11-06T06:01:32.470Z,61.19
2022-11-06T06:03:59.543Z,61.08
2022-11-06T06:06:26.598Z,60.78
2022-11-06T06:08:53.412Z,61.18
2022-11-06T06:11:20.293Z,61.10
2022-11-06T06:13:48.338Z,61.12
2022-11-06T06:16:15.892Z,61.10
2022-11-06T06:18:42.689Z,61.10
2022-11-06T06:21:09.450Z,60.74
2022-11-06T06:23:36.219Z,61.00
2022-11-06T06:26:03.027Z,61.21
2022-11-06T06:28:29.799Z,61.04
2022-11-06T06:31:01.304Z,61.05
2022-11-06T06:33:28.770Z,61.19
2022-11-06T06:35:55.539Z,61.28
2022-11-06T06:38:22.601Z,61.27
2022-11-06T06:40:49.441Z,61.30
2022-11-06T06:43:16.207Z,61.17
2022-11-06T06:45:43.103Z,61.20
2022-11-06T06:48:10.043Z,61.08
2022-11-06T06:50:36.959Z,60.96
2022-11-06T06:53:03.881Z,61.37
2022-11-06T06:55:30.702Z,61.31
2022-11-06T06:58:01.715Z,61.34
2022-11-06T07:00:29.356Z,61.44
2022-11-06T07:02:56.331Z,61.14
2022-11-06T07:05:23.443Z,61.24
2022-11-06T07:07:50.380Z,61.46
2022-11-06T07:10:17.344Z,61.52
2022-11-06T07:12:44.226Z,61.29
2022-11-06T07:15:11.482Z,61.60
2022-11-06T07:17:38.254Z,61.71
2022-11-06T07:20:06.027Z,61.90
2022-11-06T07:22:37.474Z,61.63
2022-11-06T07:25:05.961Z,61.60
2022-11-06T07:27:33.465Z,61.71
2022-11-06T07:30:00.586Z,61.85
2022-11-06T07:32:27.909Z,61.84
2022-11-06T07:34:54.736Z,62.14
2022-11-06T07:37:21.869Z,61.90
2022-11-06T07:39:48.696Z,62.11
2022-11-06T07:42:15.510Z,61.75
2022-11-06T07:44:42.286Z,61.93
2022-11-06T07:47:09.076Z,61.67
2022-11-06T07:49:35.861Z,61.58
2022-11-06T07:52:03.053Z,61.42
2022-11-06T07:54:29.870Z,61.63
2022-11-06T07:56:56.935Z,61.75
2022-11-06T07:59:23.720Z,61.72
2022-11-06T08:01:50.613Z,61.54
2022-11-06T08:04:17.504Z,61.38
2022-11-06T08:06:44.264Z,61.15
2022-11-06T08:09:11.071Z,61.06
2022-11-06T08:11:37.840Z,61.14
2022-11-06T08:14:04.673Z,61.10
2022-11-06T08:16:31.560Z,60.99
2022-11-06T08:18:58.333Z,60.83
2022-11-06T08:21:25.223Z,61.01
2022-11-06T08:23:52.058Z,60.83
2022-11-06T08:26:19.340Z,60.72
2022-11-06T08:28:46.192Z,61.09
2022-11-06T08:31:14.920Z,60.99
2022-11-06T08:33:41.774Z,61.29
2022-11-06T08:36:09.986Z,61.12
2022-11-06T08:38:36.891Z,61.10
2022-11-06T08:41:08.712Z,61.11
2022-11-06T08:43:35.972Z,61.28
2022-11-06T08:46:04.592Z,60.84
2022-11-06T08:48:33.047Z,60.79
2022-11-06T08:50:59.962Z,60.85
2022-11-06T08:53:26.799Z,61.18
2022-11-06T08:55:53.621Z,60.92
2022-11-06T08:58:20.463Z,60.88
2022-11-06T09:00:47.333Z,60.78
2022-11-06T09:03:17.994Z,60.62
2022-11-06T09:05:45.809Z,60.46
2022-11-06T09:08:14.276Z,60.27
2022-11-06T09:10:42.756Z,60.25
2022-11-06T09:13:11.060Z,60.22
2022-11-06T09:15:38.355Z,59.95
2022-11-06T09:18:05.549Z,59.68
2022-11-06T09:20:32.425Z,59.76
2022-11-06T09:23:05.281Z,59.93
2022-11-06T09:25:32.886Z,60.05
2022-11-06T09:28:00.939Z,60.54
2022-11-06T09:30:30.885Z,60.42
2022-11-06T09:33:01.841Z,60.39
2022-11-06T09:35:31.876Z,60.01
2022-11-06T09:38:08.045Z,60.07
2022-11-06T09:40:52.583Z,60.08
2022-11-06T09:44:04.736Z,59.92
2022-11-06T09:46:44.430Z,60.00
2022-11-06T09:49:36.446Z,59.62
2022-11-06T09:52:18.921Z,59.40
2022-11-06T09:54:59.960Z,59.63
2022-11-06T09:57:47.341Z,59.79
2022-11-06T10:00:17.079Z,59.85
2022-11-06T10:02:52.041Z,59.71
2022-11-06T10:05:21.634Z,59.60
2022-11-06T10:07:54.180Z,59.70
2022-11-06T10:10:29.290Z,59.70
2022-11-06T10:13:07.605Z,59.66
2022-11-06T10:15:44.455Z,59.45
2022-11-06T10:18:53.982Z,59.46
2022-11-06T10:21:25.160Z,59.55
2022-11-06T10:23:59.215Z,59.17
2022-11-06T10:26:51.792Z,59.03
2022-11-06T10:29:50.488Z,58.99
2022-11-06T10:32:32.351Z,58.88
2022-11-06T10:35:08.577Z,58.82
2022-11-06T10:37:54.899Z,58.80
2022-11-06T10:40:28.777Z,58.73
2022-11-06T10:43:07.080Z,58.75
2022-11-06T10:45:34.866Z,58.54
2022-11-06T10:48:19.256Z,58.40
2022-11-06T10:51:05.284Z,58.36
2022-11-06T10:54:21.333Z,58.36
2022-11-06T10:57:23.580Z,58.50
2022-11-06T10:59:50.931Z,58.27
2022-11-06T11:02:29.643Z,58.20
2022-11-06T11:04:58.270Z,57.95
2022-11-06T11:07:31.773Z,57.79
2022-11-06T11:09:58.737Z,57.81
2022-11-06T11:12:32.808Z,57.78
2022-11-06T11:15:18.324Z,57.78
2022-11-06T11:18:22.366Z,57.86
2022-11-06T11:21:01.522Z,57.72
2022-11-06T11:23:28.418Z,57.50
2022-11-06T11:25:58.425Z,57.45
2022-11-06T11:28:35.152Z,57.37
2022-11-06T11:31:11.742Z,57.49
2022-11-06T11:33:41.861Z,57.29
2022-11-06T11:36:10.205Z,56.96
2022-11-06T11:38:40.033Z,57.43
2022-11-06T11:41:19.102Z,57.12
2022-11-06T11:44:04.136Z,57.02
2022-11-06T11:46:32.685Z,56.71
2022-11-06T11:49:00.198Z,57.02
2022-11-06T11:51:37.028Z,56.48
2022-11-06T11:54:26.708Z,56.76
2022-11-06T11:57:07.579Z,56.70
2022-11-06T12:00:00.192Z,56.48
2022-11-06T12:02:51.277Z,56.62
2022-11-06T12:05:37.501Z,56.14
2022-11-06T12:08:06.521Z,56.05
2022-11-06T12:10:39.068Z,55.80
2022-11-06T12:13:15.137Z,55.91
2022-11-06T12:16:00.329Z,55.76
2022-11-06T12:18:42.517Z,55.67
2022-11-06T12:21:20.226Z,55.62
2022-11-06T12:24:12.866Z,55.74
2022-11-06T12:26:58.129Z,55.19
2022-11-06T12:29:41.189Z,55.01
2022-11-06T12:32:38.574Z,55.07
2022-11-06T12:35:38.204Z,55.36
2022-11-06T12:38:33.123Z,55.36
2022-11-06T12:41:25.420Z,55.33
2022-11-06T12:43:53.103Z,55.25
2022-11-06T12:46:24.685Z,55.08
2022-11-06T12:50:01.358Z,55.47
2022-11-06T12:53:10.753Z,55.68
2022-11-06T12:56:10.854Z,55.53
2022-11-06T12:59:09.928Z,55.57
2022-11-06T13:01:53.372Z,55.34
2022-11-06T13:04:34.416Z,55.24
2022-11-06T13:07:34.577Z,55.28
2022-11-06T13:10:26.683Z,55.00
2022-11-06T13:13:19.354Z,54.93
2022-11-06T13:16:17.320Z,54.81
2022-11-06T13:18:53.396Z,54.65
2022-11-06T13:21:52.297Z,55.05
2022-11-06T13:24:41.364Z,54.30
2022-11-06T13:27:32.759Z,54.65
2022-11-06T13:30:13.849Z,54.50
2022-11-06T13:32:48.444Z,54.26
2022-11-06T13:35:21.484Z,54.57
2022-11-06T13:37:51.318Z,54.18
2022-11-06T13:41:03.944Z,54.29
2022-11-06T13:43:46.663Z,54.36
2022-11-06T13:46:36.447Z,54.11
2022-11-06T13:49:30.802Z,54.21
2022-11-06T13:52:05.578Z,53.85
2022-11-06T13:55:10.833Z,53.72
2022-11-06T13:58:11.429Z,53.75
2022-11-06T14:01:02.992Z,53.65
2022-11-06T14:04:02.986Z,53.81
2022-11-06T14:06:32.922Z,53.57
2022-11-06T14:09:15.651Z,53.29
2022-11-06T14:11:44.956Z,53.18
2022-11-06T14:14:26.042Z,53.27
2022-11-06T14:17:17.130Z,53.51
2022-11-06T14:19:50.893Z,53.38
2022-11-06T14:22:28.687Z,53.68
2022-11-06T14:25:01.271Z,53.55
2022-11-06T14:27:29.117Z,53.63
2022-11-06T14:30:18.360Z,53.70
2022-11-06T14:32:48.273Z,53.70
2022-11-06T14:35:33.096Z,53.97
2022-11-06T14:38:31.523Z,54.20
2022-11-06T14:40:58.927Z,54.19
2022-11-06T14:43:33.873Z,53.89
2022-11-06T14:46:19.664Z,53.83
2022-11-06T14:48:52.222Z,53.96
2022-11-06T14:51:27.148Z,53.98
2022-11-06T14:54:01.528Z,54.17
2022-11-06T14:56:32.982Z,55.11
2022-11-06T14:59:10.597Z,54.60
2022-11-06T15:01:37.845Z,54.57
2022-11-06T15:04:18.853Z,54.10
2022-11-06T15:06:50.542Z,54.41
2022-11-06T15:09:23.374Z,54.24
2022-11-06T15:11:55.967Z,54.13
2022-11-06T15:14:22.760Z,54.25
2022-11-06T15:16:55.297Z,54.25
2022-11-06T15:19:27.494Z,54.11
2022-11-06T15:22:15.920Z,54.20
2022-11-06T15:24:58.378Z,54.35
2022-11-06T15:27:31.117Z,54.23
2022-11-06T15:30:02.520Z,54.24
2022-11-06T15:32:38.025Z,54.24
2022-11-06T15:35:19.130Z,54.03
2022-11-06T15:37:57.129Z,54.23
2022-11-06T15:40:37.532Z,54.22
2022-11-06T15:43:34.397Z,54.40
2022-11-06T15:46:15.049Z,54.45
2022-11-06T15:48:42.285Z,54.51
2022-11-06T15:51:26.894Z,54.34
2022-11-06T15:53:57.069Z,54.31
2022-11-06T15:56:30.723Z,54.47
2022-11-06T15:59:14.569Z,54.32
2022-11-06T16:01:42.352Z,54.42
2022-11-06T16:04:18.722Z,54.20
2022-11-06T16:06:47.563Z,54.27
2022-11-06T16:09:22.773Z,54.10
2022-11-06T16:11:52.185Z,54.16
2022-11-06T16:14:20.147Z,54.18
2022-11-06T16:16:56.053Z,54.17
2022-11-06T16:19:36.195Z,54.13
2022-11-06T16:22:14.423Z,54.02
2022-11-06T16:24:51.245Z,54.52
2022-11-06T16:27:18.519Z,54.26
2022-11-06T16:29:56.382Z,54.30
2022-11-06T16:32:27.501Z,54.37
2022-11-06T16:34:55.306Z,54.46
2022-11-06T16:37:29.482Z,54.29
2022-11-06T16:39:59.472Z,54.35
2022-11-06T16:42:29.455Z,54.55
2022-11-06T16:45:08.098Z,54.26
2022-11-06T16:47:35.888Z,54.54
2022-11-06T16:50:05.860Z,54.42
2022-11-06T16:52:34.749Z,54.31
2022-11-06T16:55:23.370Z,54.34
2022-11-06T16:57:58.019Z,54.27
2022-11-06T17:00:31.166Z,54.37
2022-11-06T17:03:19.205Z,54.44
2022-11-06T17:05:58.707Z,54.29
2022-11-06T17:08:38.258Z,54.23
2022-11-06T17:11:21.698Z,54.48
2022-11-06T17:13:50.557Z,54.43
2022-11-06T17:16:45.441Z,54.46
2022-11-06T17:19:12.392Z,54.68
2022-11-06T17:21:39.353Z,54.48
2022-11-06T17:24:24.382Z,54.51
2022-11-06T17:26:54.173Z,54.73
2022-11-06T17:29:22.457Z,54.36
2022-11-06T17:31:52.556Z,54.38
2022-11-06T17:34:19.514Z,54.37
2022-11-06T17:36:48.680Z,54.12
2022-11-06T17:39:16.134Z,54.08
2022-11-06T17:41:55.274Z,53.96
2022-11-06T17:44:28.531Z,53.99
2022-11-06T17:46:59.301Z,53.94
2022-11-06T17:49:29.516Z,53.89
2022-11-06T17:52:19.105Z,53.65
2022-11-06T17:54:46.183Z,53.96
2022-11-06T17:57:17.476Z,53.72
2022-11-06T18:00:08.602Z,53.83
2022-11-06T18:03:00.567Z,53.56
2022-11-06T18:05:33.590Z,53.81
2022-11-06T18:08:03.241Z,53.60
2022-11-06T18:10:30.916Z,53.53
2022-11-06T18:13:13.691Z,53.54
2022-11-06T18:15:42.066Z,53.63
2022-11-06T18:18:10.706Z,53.51
2022-11-06T18:20:53.838Z,53.38
2022-11-06T18:23:21.156Z,53.25
2022-11-06T18:25:58.129Z,53.19
2022-11-06T18:28:26.117Z,53.17
2022-11-06T18:30:53.530Z,53.44
2022-11-06T18:33:23.695Z,52.97
2022-11-06T18:35:52.154Z,53.08
2022-11-06T18:38:19.207Z,53.12
2022-11-06T18:40:51.653Z,52.96
2022-11-06T18:43:18.921Z,53.18
2022-11-06T18:45:46.210Z,53.11
2022-11-06T18:48:15.923Z,53.25
2022-11-06T18:50:46.785Z,53.07
2022-11-06T18:53:15.116Z,52.79
2022-11-06T18:55:46.274Z,52.98
2022-11-06T18:58:13.525Z,52.87
2022-11-06T19:00:40.653Z,52.85
2022-11-06T19:03:07.494Z,52.64
2022-11-06T19:05:34.494Z,52.82
2022-11-06T19:08:02.732Z,52.70
2022-11-06T19:10:31.244Z,52.71
2022-11-06T19:12:59.586Z,52.63
2022-11-06T19:15:26.595Z,52.56
2022-11-06T19:17:54.724Z,52.66
2022-11-06T19:20:22.235Z,52.56
2022-11-06T19:22:53.456Z,52.43
2022-11-06T19:25:21.396Z,52.68
2022-11-06T19:27:48.408Z,52.63
2022-11-06T19:30:16.203Z,52.26
2022-11-06T19:32:42.998Z,52.82
2022-11-06T19:35:09.971Z,52.71
2022-11-06T19:37:38.289Z,52.77
2022-11-06T19:40:06.565Z,52.82
2022-11-06T19:42:33.810Z,52.92
2022-11-06T19:45:01.400Z,52.83
2022-11-06T19:47:28.238Z,52.97
2022-11-06T19:49:55.081Z,52.75
2022-11-06T19:52:42.973Z,52.73
2022-11-06T19:55:24.965Z,53.02
2022-11-06T19:57:54.232Z,52.96
2022-11-06T20:00:21.131Z,52.98
2022-11-06T20:02:51.190Z,52.84
2022-11-06T20:05:18.364Z,52.58
2022-11-06T20:07:45.322Z,53.00
2022-11-06T20:10:12.112Z,53.16
2022-11-06T20:12:38.893Z,53.16
2022-11-06T20:15:06.300Z,53.28
2022-11-06T20:17:33.087Z,53.33
2022-11-06T20:19:59.863Z,53.66
2022-11-06T20:22:26.827Z,53.89
2022-11-06T20:24:53.629Z,54.02
2022-11-06T20:27:20.425Z,54.34
2022-11-06T20:29:47.198Z,54.63
2022-11-06T20:32:18.879Z,54.82
2022-11-06T20:34:46.272Z,55.08
2022-11-06T20:37:13.175Z,55.37
2022-11-06T20:39:41.509Z,55.57
2022-11-06T20:42:08.592Z,55.53
2022-11-06T20:44:35.437Z,55.82
2022-11-06T20:47:02.277Z,55.71
2022-11-06T20:49:29.068Z,55.89
2022-11-06T20:52:13.256Z,55.81
2022-11-06T20:54:46.428Z,55.83
2022-11-06T20:57:15.205Z,55.99
2022-11-06T20:59:42.383Z,56.18
2022-11-06T21:02:11.153Z,56.30
2022-11-06T21:04:38.413Z,56.22
2022-11-06T21:07:05.552Z,56.44
2022-11-06T21:09:32.384Z,56.44
2022-11-06T21:11:59.271Z,56.47
2022-11-06T21:14:26.182Z,56.31
2022-11-06T21:16:53.967Z,56.41
2022-11-06T21:19:20.858Z,56.58
2022-11-06T21:21:47.708Z,56.55
2022-11-06T21:24:14.528Z,56.58
2022-11-06T21:26:41.460Z,56.60
2022-11-06T21:29:10.786Z,56.45
2022-11-06T21:31:43.956Z,56.75
2022-11-06T21:34:15.620Z,56.95
2022-11-06T21:36:42.429Z,56.73
2022-11-06T21:39:15.170Z,56.96
2022-11-06T21:41:42.599Z,57.14
2022-11-06T21:44:16.095Z,56.88
2022-11-06T21:46:45.578Z,57.03
2022-11-06T21:49:13.750Z,57.01
2022-11-06T21:51:40.819Z,56.96
2022-11-06T21:54:28.109Z,57.01
2022-11-06T21:56:54.908Z,57.27
2022-11-06T21:59:29.189Z,57.30
2022-11-06T22:01:56.303Z,57.81
2022-11-06T22:04:23.355Z,57.35
2022-11-06T22:06:52.216Z,57.51
2022-11-06T22:09:24.483Z,57.34
2022-11-06T22:11:52.063Z,57.65
2022-11-06T22:14:19.115Z,57.43
2022-11-06T22:16:47.474Z,57.46
2022-11-06T22:19:16.233Z,56.94
2022-11-06T22:21:43.507Z,57.41
2022-11-06T22:24:12.935Z,57.40
2022-11-06T22:26:40.583Z,57.53
2022-11-06T22:29:11.617Z,57.39
2022-11-06T22:31:38.438Z,57.65
2022-11-06T22:34:05.507Z,57.48
2022-11-06T22:36:32.397Z,57.36
2022-11-06T22:39:00.629Z,57.42
2022-11-06T22:41:27.513Z,57.47
2022-11-06T22:43:58.825Z,57.50
2022-11-06T22:46:26.779Z,57.65
2022-11-06T22:48:54.049Z,57.64
2022-11-06T22:51:24.630Z,57.68
2022-11-06T22:53:52.619Z,57.80
2022-11-06T22:56:22.560Z,57.67
2022-11-06T22:59:02.030Z,57.62
2022-11-06T23:01:33.174Z,57.64
2022-11-06T23:04:06.052Z,57.73
2022-11-06T23:06:33.284Z,57.69
2022-11-06T23:09:00.485Z,57.59
2022-11-06T23:11:30.257Z,57.86
2022-11-06T23:14:05.954Z,57.59
2022-11-06T23:16:52.768Z,57.72
2022-11-06T23:19:21.057Z,57.60
2022-11-06T23:21:47.943Z,57.89
2022-11-06T23:24:15.221Z,57.68
2022-11-06T23:26:45.504Z,57.92
2022-11-06T23:29:12.507Z,57.79
2022-11-06T23:31:40.985Z,57.96
2022-11-06T23:34:07.799Z,57.87
2022-11-06T23:36:35.440Z,57.72
2022-11-06T23:39:02.231Z,57.71
2022-11-06T23:41:45.383Z,57.75
2022-11-06T23:44:32.256Z,57.73
2022-11-06T23:46:59.641Z,57.75
2022-11-06T23:49:26.454Z,57.80
2022-11-06T23:51:53.349Z,57.90
2022-11-06T23:54:20.395Z,57.68
2022-11-06T23:56:47.184Z,57.85
2022-11-06T23:59:14.013Z,57.93
